Time;durP1;ratioP1;P1;durP2;ratioP2;P2;SDS_P1;SDS_P2;PMS_P1;PMS_P2;Temp;Humidity;BMP_temperature;BMP_pressure;BME280_temperature;BME280_humidity;BME280_pressure;Samples;Min_cycle;Max_cycle;Signal;HPM_P1;HPM_P2
2023/03/30 00:01:21;;;;;;;2.63;2.42;;;4.30;67.50;;;;;;5074117;28;20064;-62
2023/03/30 00:03:48;;;;;;;3.30;3.00;;;4.30;67.40;;;;;;5069270;28;20380;-60
2023/03/30 00:06:23;;;;;;;2.75;2.55;;;4.30;67.70;;;;;;5062386;28;20025;-57
2023/03/30 00:08:52;;;;;;;2.50;2.30;;;4.40;67.80;;;;;;5079460;28;20021;-56
2023/03/30 00:11:22;;;;;;;2.35;2.25;;;4.40;67.00;;;;;;5072747;28;20032;-64
2023/03/30 00:13:52;;;;;;;2.00;1.90;;;4.40;66.50;;;;;;5068262;28;20025;-66
2023/03/30 00:16:18;;;;;;;1.90;1.80;;;4.40;66.00;;;;;;5067249;28;20433;-63
2023/03/30 00:18:44;;;;;;;2.00;1.90;;;4.30;65.50;;;;;;5071490;28;20017;-62
2023/03/30 00:21:10;;;;;;;2.05;1.95;;;4.40;65.30;;;;;;5069966;28;20422;-62
2023/03/30 00:23:37;;;;;;;2.45;2.15;;;4.30;65.20;;;;;;5069406;28;20048;-59
2023/03/30 00:26:03;;;;;;;2.30;2.20;;;4.30;65.10;;;;;;5070494;28;20031;-61
2023/03/30 00:28:32;;;;;;;2.05;1.95;;;4.30;65.30;;;;;;5071146;28;20025;-61
2023/03/30 00:30:58;;;;;;;2.53;2.08;;;4.30;65.10;;;;;;5073079;28;20051;-65
2023/03/30 00:33:24;;;;;;;2.55;2.25;;;4.20;65.10;;;;;;5072511;28;20395;-64
2023/03/30 00:35:52;;;;;;;2.58;2.38;;;4.30;65.40;;;;;;5077957;28;20033;-66
2023/03/30 00:38:19;;;;;;;2.55;2.35;;;4.30;65.50;;;;;;5074765;28;20055;-64
2023/03/30 00:40:51;;;;;;;2.60;2.40;;;4.30;65.70;;;;;;5075689;28;20036;-66
2023/03/30 00:43:16;;;;;;;2.40;2.28;;;4.30;65.80;;;;;;5073213;28;20391;-63
2023/03/30 00:45:42;;;;;;;2.60;2.40;;;4.30;65.80;;;;;;5068700;28;20028;-64
2023/03/30 00:48:17;;;;;;;2.80;2.60;;;4.30;65.90;;;;;;5076142;28;20402;-64
2023/03/30 00:50:52;;;;;;;2.92;2.72;;;4.30;65.90;;;;;;5073126;28;20086;-64
2023/03/30 00:53:32;;;;;;;2.88;2.67;;;4.30;65.90;;;;;;5073102;28;20043;-64
2023/03/30 00:55:59;;;;;;;3.88;2.70;;;4.20;65.80;;;;;;5076324;28;20032;-54
2023/03/30 00:58:26;;;;;;;3.28;2.55;;;4.20;65.80;;;;;;5071499;28;20029;-56
2023/03/30 01:00:52;;;;;;;2.75;2.55;;;4.20;66.00;;;;;;5071836;28;20025;-64
2023/03/30 01:03:27;;;;;;;2.70;2.50;;;4.20;65.90;;;;;;5070694;28;20051;-64
2023/03/30 01:05:55;;;;;;;2.70;2.50;;;4.20;66.00;;;;;;5070746;28;20027;-64
2023/03/30 01:08:23;;;;;;;3.00;2.50;;;4.30;66.10;;;;;;5080620;28;20355;-63
2023/03/30 01:10:50;;;;;;;2.63;2.42;;;4.30;65.90;;;;;;5068776;28;20456;-63
2023/03/30 01:13:16;;;;;;;2.65;2.45;;;4.30;65.60;;;;;;5070316;28;20032;-63
2023/03/30 01:16:05;;;;;;;2.72;2.53;;;4.30;65.50;;;;;;5071184;28;20036;-63
2023/03/30 01:18:48;;;;;;;2.40;2.25;;;4.30;65.40;;;;;;5055523;28;20029;-64
2023/03/30 01:21:26;;;;;;;2.53;2.33;;;4.30;65.40;;;;;;5071390;28;20090;-55
2023/03/30 01:24:14;;;;;;;2.70;2.50;;;4.20;65.20;;;;;;5058201;28;20040;-57
2023/03/30 01:26:48;;;;;;;2.60;2.40;;;4.30;65.20;;;;;;5069049;28;20146;-68
2023/03/30 01:29:18;;;;;;;2.20;2.10;;;4.20;65.10;;;;;;5073391;28;20074;-64
2023/03/30 01:32:00;;;;;;;2.25;2.15;;;4.20;65.40;;;;;;5074348;28;20037;-56
2023/03/30 01:34:56;;;;;;;2.22;2.13;;;4.20;65.30;;;;;;5069685;28;20098;-54
2023/03/30 01:37:55;;;;;;;1.70;1.63;;;4.20;65.30;;;;;;5070714;28;20352;-55
2023/03/30 01:40:38;;;;;;;2.28;2.17;;;4.20;65.10;;;;;;5064689;28;20037;-62
2023/03/30 01:43:33;;;;;;;2.85;2.20;;;4.20;65.30;;;;;;5070035;28;20028;-63
2023/03/30 01:46:11;;;;;;;2.05;1.95;;;4.30;65.20;;;;;;5072085;28;20040;-64
2023/03/30 01:48:48;;;;;;;2.47;2.35;;;4.30;65.40;;;;;;5079126;28;20540;-63
2023/03/30 01:51:28;;;;;;;2.42;2.20;;;4.30;65.50;;;;;;5069907;28;20033;-64
2023/03/30 01:54:12;;;;;;;2.55;2.35;;;4.30;65.20;;;;;;5070032;28;20028;-64
2023/03/30 01:57:08;;;;;;;2.65;2.47;;;4.30;65.10;;;;;;5080439;28;20040;-65
2023/03/30 01:59:42;;;;;;;2.83;2.60;;;4.20;65.10;;;;;;5059273;28;20437;-64
2023/03/30 02:02:12;;;;;;;2.67;2.47;;;4.20;65.30;;;;;;5074297;28;20495;-63
2023/03/30 02:04:41;;;;;;;3.92;2.80;;;4.20;65.20;;;;;;5074405;28;20024;-64
2023/03/30 02:07:14;;;;;;;2.45;2.35;;;4.20;65.30;;;;;;5076651;28;20506;-61
2023/03/30 02:09:41;;;;;;;2.75;2.55;;;4.20;65.10;;;;;;5073878;28;20037;-61
2023/03/30 02:12:09;;;;;;;2.90;2.60;;;4.20;65.30;;;;;;5072555;28;20448;-61
2023/03/30 02:14:37;;;;;;;2.33;2.13;;;4.20;65.20;;;;;;5070551;28;20056;-60
2023/03/30 02:17:16;;;;;;;2.80;2.60;;;4.20;65.50;;;;;;5073241;28;20383;-63
2023/03/30 02:19:45;;;;;;;2.60;2.40;;;4.20;65.40;;;;;;5073978;28;20036;-64
2023/03/30 02:22:12;;;;;;;2.55;2.35;;;4.20;65.40;;;;;;5074204;28;20074;-53
2023/03/30 02:24:39;;;;;;;2.53;2.33;;;4.20;65.80;;;;;;5071765;28;20052;-52
2023/03/30 02:27:05;;;;;;;2.80;2.60;;;4.20;65.70;;;;;;5074200;28;20360;-61
2023/03/30 02:29:33;;;;;;;2.75;2.55;;;4.20;65.80;;;;;;5073516;28;21560;-61
2023/03/30 02:31:59;;;;;;;2.70;2.50;;;4.20;65.80;;;;;;5072592;28;20028;-61
2023/03/30 02:34:48;;;;;;;2.40;2.22;;;4.20;65.70;;;;;;5072535;28;20051;-61
2023/03/30 02:37:29;;;;;;;2.28;2.17;;;4.20;65.70;;;;;;5073367;28;20043;-62
2023/03/30 02:40:41;;;;;;;2.78;2.50;;;4.20;65.40;;;;;;5073723;28;20029;-62
2023/03/30 02:43:22;;;;;;;;;;;4.20;65.50;;;;;;4998923;28;20104;-63
2023/03/30 02:46:02;;;;;;;2.92;2.72;;;4.10;65.60;;;;;;5069676;28;20267;-61
2023/03/30 02:48:43;;;;;;;2.60;2.40;;;4.10;66.00;;;;;;5070175;28;20103;-61
2023/03/30 02:51:39;;;;;;;2.80;2.60;;;4.10;66.20;;;;;;5072977;28;20040;-54
2023/03/30 02:54:44;;;;;;;2.50;2.30;;;4.10;66.50;;;;;;5069690;28;20036;-55
2023/03/30 02:57:31;;;;;;;3.53;2.88;;;4.10;66.30;;;;;;5068895;28;20032;-54
2023/03/30 03:00:09;;;;;;;2.72;2.53;;;4.10;66.30;;;;;;5073094;28;20035;-54
2023/03/30 03:02:40;;;;;;;2.65;2.45;;;4.00;66.30;;;;;;5070915;28;20047;-53
2023/03/30 03:05:08;;;;;;;2.58;2.40;;;4.00;66.60;;;;;;5072722;28;20082;-57
2023/03/30 03:07:34;;;;;;;2.65;2.45;;;4.00;66.40;;;;;;5074968;28;20068;-56
2023/03/30 03:10:00;;;;;;;2.88;2.50;;;4.00;66.30;;;;;;5072561;28;20032;-52
2023/03/30 03:12:27;;;;;;;2.42;2.22;;;4.10;66.50;;;;;;5073890;28;20055;-67
2023/03/30 03:14:53;;;;;;;4.35;2.47;;;4.10;66.30;;;;;;5075025;28;20111;-65
2023/03/30 03:17:21;;;;;;;2.70;2.50;;;4.10;67.10;;;;;;5072048;28;20456;-63
2023/03/30 03:19:47;;;;;;;2.53;2.33;;;4.10;66.60;;;;;;5071469;28;20060;-61
2023/03/30 03:22:13;;;;;;;3.17;2.53;;;4.10;66.40;;;;;;5072412;28;20021;-62
2023/03/30 03:24:39;;;;;;;4.32;2.70;;;4.20;66.30;;;;;;5070740;28;20054;-64
2023/03/30 03:27:05;;;;;;;2.60;2.40;;;4.10;66.10;;;;;;5072726;28;20020;-62
2023/03/30 03:29:31;;;;;;;2.80;2.60;;;4.10;66.10;;;;;;5072061;28;20475;-62
2023/03/30 03:31:58;;;;;;;3.47;2.65;;;4.10;66.30;;;;;;5073279;28;20119;-56
2023/03/30 03:34:30;;;;;;;3.13;2.60;;;4.10;66.40;;;;;;5074383;28;20168;-57
2023/03/30 03:36:56;;;;;;;3.35;2.70;;;4.20;66.20;;;;;;5053251;28;20034;-60
2023/03/30 03:39:22;;;;;;;3.88;2.97;;;4.20;66.00;;;;;;5072185;28;20033;-62
2023/03/30 03:41:48;;;;;;;3.50;2.90;;;4.10;66.00;;;;;;5072851;28;20052;-64
2023/03/30 03:44:13;;;;;;;2.92;2.72;;;4.10;66.00;;;;;;5072630;28;20444;-64
2023/03/30 03:46:39;;;;;;;4.40;3.05;;;4.10;65.70;;;;;;5079972;28;20082;-61
2023/03/30 03:49:05;;;;;;;2.90;2.70;;;4.10;65.50;;;;;;5077809;28;20115;-61
2023/03/30 03:51:31;;;;;;;2.72;2.53;;;4.10;65.20;;;;;;5072591;28;20028;-62
2023/03/30 03:53:57;;;;;;;2.90;2.70;;;4.00;65.40;;;;;;5066842;28;20047;-62
2023/03/30 03:56:24;;;;;;;2.78;2.58;;;4.00;65.60;;;;;;5079149;28;20033;-61
2023/03/30 03:58:50;;;;;;;2.88;2.53;;;4.00;65.30;;;;;;5071804;28;20031;-61
2023/03/30 04:01:16;;;;;;;2.55;2.35;;;3.90;65.30;;;;;;5072899;28;20459;-62
2023/03/30 04:03:42;;;;;;;2.03;1.92;;;3.90;64.90;;;;;;5075292;28;20035;-65
2023/03/30 04:06:08;;;;;;;2.15;2.05;;;3.90;64.80;;;;;;5074795;28;20032;-63
2023/03/30 04:08:33;;;;;;;2.13;2.03;;;3.90;64.60;;;;;;5070727;28;20074;-64
2023/03/30 04:11:10;;;;;;;3.50;2.38;;;3.80;64.50;;;;;;5072077;28;20094;-61
2023/03/30 04:13:37;;;;;;;2.50;2.30;;;3.80;64.70;;;;;;5067026;28;20115;-61
2023/03/30 04:16:04;;;;;;;2.50;2.30;;;3.80;64.80;;;;;;5069981;28;20090;-62
2023/03/30 04:18:32;;;;;;;2.50;2.30;;;3.80;64.90;;;;;;5070685;28;20032;-61
2023/03/30 04:21:03;;;;;;;2.58;2.47;;;3.70;64.70;;;;;;5071630;28;20028;-62
2023/03/30 04:23:35;;;;;;;3.10;2.78;;;3.70;64.90;;;;;;5065130;28;20090;-65
2023/03/30 04:26:02;;;;;;;;;;;3.80;65.20;;;;;;5064626;28;20067;-61
2023/03/30 04:28:28;;;;;;;4.43;3.45;;;3.80;65.40;;;;;;5071611;28;19912;-61
2023/03/30 04:31:02;;;;;;;3.35;3.05;;;3.80;65.70;;;;;;5053105;28;20363;-61
2023/03/30 04:33:29;;;;;;;4.15;3.45;;;4.00;65.70;;;;;;5063425;28;20372;-61
2023/03/30 04:35:55;;;;;;;4.53;3.42;;;4.10;65.70;;;;;;5074722;28;20538;-63
2023/03/30 04:38:21;;;;;;;4.35;3.63;;;4.20;65.30;;;;;;5070503;28;20119;-61
2023/03/30 04:40:54;;;;;;;4.13;3.60;;;4.30;65.30;;;;;;5073321;28;20628;-62
2023/03/30 04:43:21;;;;;;;6.00;3.63;;;4.50;65.30;;;;;;5080319;28;20336;-62
2023/03/30 04:45:51;;;;;;;5.55;4.00;;;4.60;65.20;;;;;;5074266;28;20055;-62
2023/03/30 04:48:18;;;;;;;4.75;3.88;;;4.70;64.90;;;;;;5075547;28;20107;-62
2023/03/30 04:50:45;;;;;;;4.85;3.90;;;4.80;64.70;;;;;;5069771;28;20031;-62
2023/03/30 04:53:13;;;;;;;5.20;3.63;;;4.80;64.40;;;;;;5068016;28;20478;-61
2023/03/30 04:55:39;;;;;;;4.55;3.67;;;4.90;64.40;;;;;;5072121;28;20020;-63
2023/03/30 04:58:05;;;;;;;7.32;4.43;;;4.90;64.30;;;;;;5070735;28;20025;-64
2023/03/30 05:00:32;;;;;;;5.03;3.92;;;5.00;64.00;;;;;;5074578;28;20036;-61
2023/03/30 05:02:58;;;;;;;5.35;4.10;;;4.90;63.90;;;;;;5071706;28;20021;-62
2023/03/30 05:05:23;;;;;;;5.95;4.00;;;4.90;63.90;;;;;;5079564;28;20033;-54
2023/03/30 05:07:49;;;;;;;6.20;4.47;;;5.00;64.10;;;;;;5063321;28;20091;-51
2023/03/30 05:10:15;;;;;;;6.00;4.60;;;5.20;64.20;;;;;;5059800;28;20393;-60
2023/03/30 05:12:40;;;;;;;6.85;4.68;;;5.40;63.80;;;;;;5070875;28;20029;-61
2023/03/30 05:15:07;;;;;;;5.85;4.50;;;5.70;63.80;;;;;;5066601;28;20025;-61
2023/03/30 05:17:33;;;;;;;4.97;3.97;;;6.20;63.80;;;;;;5063400;28;20029;-62
2023/03/30 05:19:59;;;;;;;4.32;3.65;;;6.80;62.70;;;;;;5072608;28;20446;-62
2023/03/30 05:22:25;;;;;;;4.78;3.67;;;7.30;62.10;;;;;;5059698;28;20056;-61
2023/03/30 05:24:51;;;;;;;4.35;3.10;;;7.80;61.20;;;;;;5046443;28;20070;-61
2023/03/30 05:27:17;;;;;;;3.33;3.00;;;8.10;59.60;;;;;;5062253;28;20029;-62
2023/03/30 05:29:43;;;;;;;5.07;3.80;;;8.10;58.90;;;;;;5070748;28;20115;-61
2023/03/30 05:32:09;;;;;;;4.65;3.55;;;8.00;58.40;;;;;;5054799;28;20135;-57
2023/03/30 05:34:35;;;;;;;4.60;3.60;;;7.70;58.20;;;;;;5077635;28;20082;-56
2023/03/30 05:37:01;;;;;;;4.90;3.83;;;7.40;58.40;;;;;;5073298;28;20090;-52
2023/03/30 05:39:26;;;;;;;3.95;3.38;;;7.00;58.90;;;;;;5081065;28;20115;-57
2023/03/30 05:41:52;;;;;;;4.97;3.50;;;6.70;59.50;;;;;;5063628;28;20060;-54
2023/03/30 05:44:18;;;;;;;3.58;3.28;;;6.50;60.20;;;;;;5050004;28;20057;-55
2023/03/30 05:46:44;;;;;;;3.30;3.00;;;6.40;60.70;;;;;;5055827;28;20150;-54
2023/03/30 05:49:10;;;;;;;3.75;3.10;;;6.40;61.10;;;;;;5059545;28;20054;-58
2023/03/30 05:51:35;;;;;;;3.22;2.80;;;6.40;61.30;;;;;;5066058;28;20434;-53
2023/03/30 05:54:02;;;;;;;3.47;3.05;;;6.50;61.30;;;;;;5063160;28;20031;-54
2023/03/30 05:56:28;;;;;;;3.67;2.90;;;6.50;61.30;;;;;;5071136;28;20094;-56
2023/03/30 05:58:54;;;;;;;3.67;3.10;;;6.50;60.80;;;;;;5063184;28;20630;-60
2023/03/30 06:01:20;;;;;;;3.22;2.92;;;6.50;61.00;;;;;;5056605;28;20036;-58
2023/03/30 06:03:46;;;;;;;3.20;2.90;;;6.50;61.10;;;;;;5056579;28;20495;-52
2023/03/30 06:06:12;;;;;;;3.25;2.95;;;6.70;61.10;;;;;;5061363;28;20778;-59
2023/03/30 06:08:39;;;;;;;3.80;2.92;;;6.90;60.70;;;;;;5058739;28;20028;-52
2023/03/30 06:11:05;;;;;;;3.15;2.83;;;7.10;60.70;;;;;;5061635;28;20913;-55
2023/03/30 06:13:32;;;;;;;4.63;3.28;;;7.10;59.60;;;;;;5058488;28;20398;-52
2023/03/30 06:15:57;;;;;;;6.10;3.03;;;7.00;59.50;;;;;;5062733;28;20536;-57
2023/03/30 06:18:23;;;;;;;3.38;3.08;;;6.90;59.70;;;;;;5064841;28;20033;-55
2023/03/30 06:20:50;;;;;;;3.30;3.00;;;6.80;59.60;;;;;;5060292;28;20032;-54
2023/03/30 06:23:16;;;;;;;3.60;3.17;;;6.70;59.80;;;;;;5059248;28;20045;-59
2023/03/30 06:25:51;;;;;;;3.92;3.42;;;6.50;60.10;;;;;;5061192;28;20028;-54
2023/03/30 06:28:19;;;;;;;3.45;3.03;;;6.40;60.40;;;;;;5064272;28;20070;-52
2023/03/30 06:30:47;;;;;;;5.88;2.80;;;6.30;60.50;;;;;;5053897;28;20032;-57
2023/03/30 06:33:15;;;;;;;3.00;2.80;;;6.20;61.00;;;;;;5055933;28;20035;-57
2023/03/30 06:35:45;;;;;;;3.28;2.70;;;6.10;61.10;;;;;;5058964;28;21562;-54
2023/03/30 06:38:12;;;;;;;2.80;2.60;;;6.00;61.10;;;;;;5056302;28;20043;-52
2023/03/30 06:40:38;;;;;;;3.38;3.08;;;5.90;61.50;;;;;;5056452;28;20045;-53
2023/03/30 06:43:03;;;;;;;2.85;2.42;;;5.80;61.50;;;;;;5067234;28;20106;-57
2023/03/30 06:45:29;;;;;;;3.67;2.60;;;5.80;61.60;;;;;;5063573;28;20032;-56
2023/03/30 06:47:55;;;;;;;2.97;2.65;;;5.80;62.50;;;;;;5060490;28;20042;-59
2023/03/30 06:50:21;;;;;;;2.90;2.60;;;5.70;61.80;;;;;;5058078;28;20032;-55
2023/03/30 06:52:47;;;;;;;2.90;2.70;;;5.70;61.70;;;;;;5047935;28;20067;-52
2023/03/30 06:55:13;;;;;;;3.25;2.95;;;5.70;62.30;;;;;;5056347;28;20440;-51
2023/03/30 06:57:38;;;;;;;2.88;2.47;;;5.80;62.20;;;;;;5055323;28;20061;-55
2023/03/30 07:00:09;;;;;;;3.08;2.65;;;5.80;62.20;;;;;;5051404;28;20037;-57
2023/03/30 07:02:35;;;;;;;2.78;2.58;;;5.80;62.10;;;;;;5055576;28;20090;-55
2023/03/30 07:05:01;;;;;;;3.22;2.85;;;5.80;62.10;;;;;;5048475;28;21838;-58
2023/03/30 07:07:27;;;;;;;3.08;2.78;;;5.80;62.00;;;;;;5051493;28;20030;-53
2023/03/30 07:09:52;;;;;;;2.90;2.70;;;5.80;62.20;;;;;;5044611;28;20482;-54
2023/03/30 07:12:18;;;;;;;3.35;2.70;;;5.90;62.20;;;;;;5043275;28;20459;-57
2023/03/30 07:14:44;;;;;;;3.15;2.65;;;5.90;62.30;;;;;;5045411;28;20425;-55
2023/03/30 07:17:10;;;;;;;3.33;2.67;;;5.90;62.20;;;;;;5049562;28;20508;-59
2023/03/30 07:19:35;;;;;;;3.25;2.72;;;5.90;61.90;;;;;;5050664;28;20094;-54
2023/03/30 07:22:02;;;;;;;3.15;2.55;;;5.90;61.80;;;;;;5031283;28;20033;-55
2023/03/30 07:24:30;;;;;;;2.70;2.40;;;5.90;61.80;;;;;;5041975;28;20033;-57
2023/03/30 07:26:56;;;;;;;2.55;2.35;;;5.90;61.70;;;;;;5044350;28;20033;-56
2023/03/30 07:29:21;;;;;;;2.80;2.60;;;5.80;61.80;;;;;;5045946;28;20048;-55
2023/03/30 07:31:47;;;;;;;3.08;2.78;;;5.90;62.20;;;;;;5042707;28;20033;-59
2023/03/30 07:34:15;;;;;;;3.35;2.60;;;5.90;62.30;;;;;;5028162;28;20055;-57
2023/03/30 07:36:40;;;;;;;2.70;2.50;;;5.90;62.20;;;;;;5043911;28;20143;-56
2023/03/30 07:39:07;;;;;;;2.63;2.42;;;5.90;62.40;;;;;;5053096;28;20036;-57
2023/03/30 07:41:32;;;;;;;3.08;2.78;;;5.90;62.20;;;;;;5051028;28;20064;-60
2023/03/30 07:43:58;;;;;;;2.75;2.50;;;5.90;62.10;;;;;;5036049;28;21527;-61
2023/03/30 07:46:24;;;;;;;2.78;2.55;;;5.90;62.10;;;;;;5037473;28;21059;-59
2023/03/30 07:48:49;;;;;;;3.50;2.80;;;5.90;62.30;;;;;;5038795;28;20032;-55
2023/03/30 07:51:15;;;;;;;2.58;2.38;;;5.90;62.60;;;;;;5041439;28;20032;-56
2023/03/30 07:53:41;;;;;;;2.72;2.53;;;5.90;62.30;;;;;;5048568;28;20486;-57
2023/03/30 07:56:07;;;;;;;2.78;2.58;;;5.90;62.30;;;;;;5038652;28;20032;-55
2023/03/30 07:58:33;;;;;;;2.60;2.40;;;5.90;62.20;;;;;;5040675;28;20047;-57
2023/03/30 08:01:01;;;;;;;2.65;2.45;;;5.90;62.20;;;;;;5021423;28;20947;-57
2023/03/30 08:03:27;;;;;;;2.80;2.60;;;5.80;62.00;;;;;;5033802;28;20082;-55
2023/03/30 08:05:59;;;;;;;2.78;2.55;;;5.80;61.90;;;;;;5041250;28;20044;-55
2023/03/30 08:08:26;;;;;;;2.78;2.58;;;5.80;62.00;;;;;;5042158;28;20035;-55
2023/03/30 08:10:52;;;;;;;2.95;2.67;;;5.70;61.70;;;;;;5041987;28;20075;-60
2023/03/30 08:13:19;;;;;;;3.40;2.85;;;5.70;61.80;;;;;;5036177;28;20078;-53
2023/03/30 08:15:45;;;;;;;2.72;2.50;;;5.60;61.80;;;;;;5022920;28;20036;-54
2023/03/30 08:18:12;;;;;;;3.28;2.50;;;5.60;61.70;;;;;;5041130;28;20196;-58
2023/03/30 08:20:40;;;;;;;2.65;2.45;;;5.60;61.80;;;;;;5044158;28;20031;-56
2023/03/30 08:23:06;;;;;;;2.80;2.60;;;5.50;62.00;;;;;;5039681;28;20052;-59
2023/03/30 08:25:32;;;;;;;3.60;2.50;;;5.50;62.10;;;;;;5042407;28;20043;-60
2023/03/30 08:27:58;;;;;;;3.15;2.75;;;5.50;62.00;;;;;;5042773;28;20040;-55
2023/03/30 08:30:24;;;;;;;3.20;2.90;;;5.50;61.80;;;;;;5029509;28;20041;-56
2023/03/30 08:32:50;;;;;;;3.53;2.63;;;5.60;62.40;;;;;;5044241;28;20608;-55
2023/03/30 08:35:16;;;;;;;2.85;2.60;;;5.50;62.30;;;;;;5026972;28;21314;-53
2023/03/30 08:37:42;;;;;;;3.78;2.72;;;5.60;62.40;;;;;;5038784;28;20525;-53
2023/03/30 08:40:11;;;;;;;4.57;3.25;;;5.60;62.10;;;;;;5034442;28;20036;-57
2023/03/30 08:43:04;;;;;;;3.00;2.67;;;5.60;61.90;;;;;;5032165;28;20020;-56
2023/03/30 08:45:39;;;;;;;2.78;2.58;;;5.60;61.60;;;;;;5033023;28;20044;-55
2023/03/30 08:48:10;;;;;;;4.18;2.80;;;5.50;61.30;;;;;;5046545;28;20501;-58
2023/03/30 08:50:36;;;;;;;2.85;2.65;;;5.50;61.30;;;;;;5044930;28;20049;-56
2023/03/30 08:53:05;;;;;;;2.85;2.65;;;5.50;61.30;;;;;;5039972;28;20087;-58
2023/03/30 08:55:51;;;;;;;2.70;2.50;;;5.50;61.50;;;;;;5035219;28;20040;-60
2023/03/30 08:58:28;;;;;;;2.80;2.60;;;5.50;61.40;;;;;;5027285;28;20086;-60
2023/03/30 09:01:24;;;;;;;3.53;2.60;;;5.50;61.70;;;;;;5030230;28;20029;-59
2023/03/30 09:04:06;;;;;;;3.30;3.00;;;5.50;61.40;;;;;;5042339;28;20032;-54
2023/03/30 09:06:53;;;;;;;3.20;2.90;;;5.50;61.40;;;;;;5039095;28;20040;-58
2023/03/30 09:09:22;;;;;;;2.90;2.60;;;5.60;61.20;;;;;;5040855;28;20544;-55
2023/03/30 09:12:03;;;;;;;2.80;2.60;;;5.60;61.00;;;;;;5030773;28;20475;-56
2023/03/30 09:14:36;;;;;;;3.40;2.72;;;5.60;61.20;;;;;;5042276;28;20028;-55
2023/03/30 09:17:15;;;;;;;3.35;2.80;;;5.60;61.20;;;;;;5040246;28;20025;-58
2023/03/30 09:20:08;;;;;;;2.75;2.55;;;5.60;61.30;;;;;;5044194;28;20045;-56
2023/03/30 09:22:42;;;;;;;5.72;3.53;;;5.60;61.10;;;;;;5039080;28;20033;-60
2023/03/30 09:25:32;;;;;;;3.53;2.95;;;5.60;61.30;;;;;;5036395;28;20033;-52
2023/03/30 09:28:14;;;;;;;2.85;2.55;;;5.70;60.80;;;;;;5046638;28;20072;-56
2023/03/30 09:30:44;;;;;;;2.63;2.42;;;5.70;60.90;;;;;;5042244;28;20045;-52
2023/03/30 09:33:28;;;;;;;3.70;2.80;;;5.60;60.70;;;;;;5050137;28;20041;-55
2023/03/30 09:36:13;;;;;;;2.72;2.53;;;5.70;60.50;;;;;;5037688;28;20028;-59
2023/03/30 09:38:40;;;;;;;3.05;2.75;;;5.70;60.50;;;;;;5051832;28;20060;-57
2023/03/30 09:41:32;;;;;;;3.45;3.03;;;5.70;60.40;;;;;;5044438;28;20120;-52
2023/03/30 09:43:58;;;;;;;3.70;2.80;;;5.70;60.20;;;;;;5041806;28;20036;-57
2023/03/30 09:46:24;;;;;;;3.90;2.85;;;5.70;60.20;;;;;;5044420;28;20058;-51
2023/03/30 09:48:50;;;;;;;2.65;2.45;;;5.80;60.40;;;;;;5043887;28;20423;-58
2023/03/30 09:51:25;;;;;;;3.15;2.75;;;5.80;60.30;;;;;;5039814;28;20032;-57
2023/03/30 09:54:07;;;;;;;3.08;2.88;;;5.80;60.20;;;;;;5024054;28;20583;-57
2023/03/30 09:56:33;;;;;;;2.75;2.55;;;5.90;60.00;;;;;;5022876;28;20170;-56
2023/03/30 09:59:44;;;;;;;3.08;2.70;;;5.90;60.30;;;;;;5036051;28;20647;-55
2023/03/30 10:02:15;;;;;;;2.75;2.55;;;5.90;60.00;;;;;;5022262;28;20061;-58
2023/03/30 10:04:53;;;;;;;3.00;2.80;;;5.90;59.80;;;;;;5037281;28;20053;-60
2023/03/30 10:07:28;;;;;;;3.55;2.90;;;5.90;60.00;;;;;;5033504;28;20087;-56
2023/03/30 10:09:54;;;;;;;2.92;2.65;;;6.00;59.90;;;;;;5036127;28;20081;-53
2023/03/30 10:12:24;;;;;;;3.95;2.70;;;6.00;59.90;;;;;;5029934;28;20036;-58
2023/03/30 10:15:00;;;;;;;2.80;2.53;;;6.00;60.00;;;;;;5037129;28;20043;-55
2023/03/30 10:17:26;;;;;;;3.63;2.80;;;6.00;60.10;;;;;;5037271;28;20047;-50
2023/03/30 10:20:12;;;;;;;3.25;2.70;;;6.00;60.30;;;;;;5042387;28;20036;-59
2023/03/30 10:22:49;;;;;;;3.50;2.92;;;6.10;60.30;;;;;;5035176;28;20047;-56
2023/03/30 10:25:20;;;;;;;2.97;2.67;;;6.10;60.50;;;;;;5036151;28;20147;-57
2023/03/30 10:27:48;;;;;;;3.13;2.75;;;6.10;60.40;;;;;;5030016;28;20032;-58
2023/03/30 10:30:18;;;;;;;3.13;2.78;;;6.10;60.20;;;;;;5032508;28;20048;-57
2023/03/30 10:32:45;;;;;;;2.95;2.67;;;6.20;60.20;;;;;;5030952;28;20090;-54
2023/03/30 10:35:31;;;;;;;2.72;2.53;;;6.20;59.90;;;;;;5022153;28;20033;-58
2023/03/30 10:38:00;;;;;;;3.95;3.03;;;6.20;60.20;;;;;;5026618;28;20055;-56
2023/03/30 10:40:33;;;;;;;2.70;2.50;;;6.20;59.90;;;;;;5036788;28;20076;-53
2023/03/30 10:43:01;;;;;;;2.60;2.40;;;6.20;59.90;;;;;;5036104;28;20853;-55
2023/03/30 10:45:44;;;;;;;3.00;2.80;;;6.20;60.00;;;;;;5039231;28;20037;-50
2023/03/30 10:48:28;;;;;;;3.08;2.75;;;6.30;60.10;;;;;;5050199;28;20482;-59
2023/03/30 10:50:57;;;;;;;3.78;2.63;;;6.30;60.10;;;;;;5035957;28;20044;-55
2023/03/30 10:53:50;;;;;;;3.50;3.10;;;6.30;60.10;;;;;;5042865;28;20463;-53
2023/03/30 10:56:28;;;;;;;3.00;2.80;;;6.40;60.00;;;;;;5033296;28;21123;-55
2023/03/30 10:58:53;;;;;;;3.38;2.70;;;6.30;59.80;;;;;;5030299;28;20375;-52
2023/03/30 11:01:41;;;;;;;2.90;2.60;;;6.40;59.70;;;;;;5041987;28;20098;-54
2023/03/30 11:04:17;;;;;;;2.88;2.67;;;6.30;59.50;;;;;;5053664;28;20029;-58
2023/03/30 11:06:44;;;;;;;3.65;2.85;;;6.40;59.50;;;;;;5049279;28;20037;-57
2023/03/30 11:09:15;;;;;;;3.30;2.80;;;6.40;59.20;;;;;;5042135;28;20200;-54
2023/03/30 11:11:47;;;;;;;3.22;2.90;;;6.40;59.10;;;;;;5042972;28;20470;-54
2023/03/30 11:14:29;;;;;;;4.18;3.30;;;6.40;59.30;;;;;;5043689;28;20049;-56
2023/03/30 11:17:07;;;;;;;3.90;3.22;;;6.50;59.30;;;;;;5046631;28;20037;-58
2023/03/30 11:19:42;;;;;;;3.25;2.95;;;6.50;59.20;;;;;;5042076;28;20037;-52
2023/03/30 11:22:27;;;;;;;4.05;2.90;;;6.50;59.30;;;;;;5040718;28;21800;-58
2023/03/30 11:24:56;;;;;;;3.45;2.90;;;6.50;59.40;;;;;;5039544;28;20046;-51
2023/03/30 11:27:30;;;;;;;3.30;2.90;;;6.60;59.90;;;;;;5045466;28;20063;-55
2023/03/30 11:30:11;;;;;;;3.20;2.80;;;6.60;59.80;;;;;;5043181;28;20043;-53
2023/03/30 11:32:42;;;;;;;3.30;2.90;;;6.60;59.60;;;;;;5027470;28;21816;-56
2023/03/30 11:35:35;;;;;;;3.78;2.92;;;6.70;59.50;;;;;;5049160;28;20094;-55
2023/03/30 11:38:13;;;;;;;3.28;2.97;;;6.70;59.20;;;;;;5038608;28;20090;-49
2023/03/30 11:40:54;;;;;;;11.55;8.23;;;6.70;59.10;;;;;;5033927;28;20095;-56
2023/03/30 11:43:30;;;;;;;5.15;3.72;;;6.70;59.10;;;;;;5039718;28;20520;-52
2023/03/30 11:46:07;;;;;;;4.05;3.45;;;6.80;59.00;;;;;;5044768;28;20098;-55
2023/03/30 11:49:01;;;;;;;4.00;2.88;;;6.80;58.60;;;;;;5035933;28;20017;-55
2023/03/30 11:51:41;;;;;;;3.47;2.58;;;6.80;58.80;;;;;;5038104;28;20064;-57
2023/03/30 11:54:35;;;;;;;3.33;2.92;;;6.80;58.80;;;;;;5048075;28;20059;-55
2023/03/30 11:57:09;;;;;;;2.67;2.40;;;6.80;58.80;;;;;;5043884;28;20983;-59
2023/03/30 12:00:00;;;;;;;3.83;2.97;;;6.90;58.70;;;;;;5046209;28;20722;-55
2023/03/30 12:02:33;;;;;;;3.05;2.70;;;6.90;58.60;;;;;;5042887;28;20037;-56
2023/03/30 12:05:08;;;;;;;2.95;2.40;;;6.90;58.70;;;;;;5056525;28;21003;-52
2023/03/30 12:07:42;;;;;;;2.85;2.65;;;7.00;58.50;;;;;;5034653;28;20466;-55
2023/03/30 12:10:17;;;;;;;3.00;2.70;;;7.00;58.20;;;;;;5039518;28;20040;-54
2023/03/30 12:12:46;;;;;;;3.70;2.80;;;7.00;58.30;;;;;;5036044;28;20028;-54
2023/03/30 12:15:34;;;;;;;3.17;2.83;;;7.00;57.90;;;;;;5037480;28;20038;-51
2023/03/30 12:18:19;;;;;;;3.33;2.90;;;7.10;57.90;;;;;;4994458;28;20036;-54
2023/03/30 12:21:00;;;;;;;2.80;2.60;;;7.10;57.90;;;;;;5041631;28;20571;-51
2023/03/30 12:23:25;;;;;;;3.05;2.75;;;7.10;57.90;;;;;;5036803;28;21107;-54
2023/03/30 12:26:26;;;;;;;2.83;2.53;;;7.10;58.20;;;;;;5045004;28;20032;-53
2023/03/30 12:29:08;;;;;;;3.10;2.80;;;7.10;57.90;;;;;;5045449;28;20033;-51
2023/03/30 12:31:50;;;;;;;3.78;2.83;;;7.20;57.80;;;;;;5031075;28;22190;-56
2023/03/30 12:34:16;;;;;;;3.00;2.70;;;7.20;57.20;;;;;;5044389;28;20165;-53
2023/03/30 12:36:47;;;;;;;3.03;2.50;;;7.20;57.00;;;;;;5022741;28;21144;-53
2023/03/30 12:39:35;;;;;;;3.00;2.80;;;7.20;57.10;;;;;;5031411;28;20032;-58
2023/03/30 12:42:24;;;;;;;2.70;2.50;;;7.20;57.20;;;;;;5046395;28;20084;-55
2023/03/30 12:45:24;;;;;;;3.10;2.80;;;7.30;57.10;;;;;;5052775;28;20028;-54
2023/03/30 12:48:18;;;;;;;2.90;2.60;;;7.30;57.20;;;;;;5042216;28;20036;-55
2023/03/30 12:51:05;;;;;;;2.83;2.63;;;7.30;57.30;;;;;;5049878;28;20043;-54
2023/03/30 12:54:16;;;;;;;2.67;2.47;;;7.40;57.50;;;;;;5035572;28;20021;-53
2023/03/30 12:56:48;;;;;;;4.35;2.60;;;7.40;57.70;;;;;;5015371;28;20048;-58
2023/03/30 12:59:32;;;;;;;2.90;2.63;;;7.40;57.40;;;;;;5033304;28;20078;-58
2023/03/30 13:02:05;;;;;;;2.90;2.70;;;7.40;56.80;;;;;;5041907;28;21627;-61
2023/03/30 13:04:37;;;;;;;2.50;2.30;;;7.40;56.40;;;;;;5037076;28;20563;-56
2023/03/30 13:07:13;;;;;;;3.10;2.80;;;7.40;56.40;;;;;;5032415;28;20182;-55
2023/03/30 13:10:00;;;;;;;2.65;2.28;;;7.40;56.30;;;;;;5043295;28;20651;-53
2023/03/30 13:12:38;;;;;;;2.92;2.70;;;7.50;56.70;;;;;;5045206;28;20036;-55
2023/03/30 13:15:19;;;;;;;3.13;2.60;;;7.50;57.00;;;;;;5036290;28;20123;-58
2023/03/30 13:17:53;;;;;;;3.55;2.72;;;7.50;57.30;;;;;;5039781;28;20033;-56
2023/03/30 13:20:26;;;;;;;2.83;2.63;;;7.50;57.30;;;;;;5045932;28;20040;-55
2023/03/30 13:23:00;;;;;;;3.00;2.58;;;7.50;57.20;;;;;;5049519;28;20045;-58
2023/03/30 13:26:02;;;;;;;2.63;2.42;;;7.60;56.90;;;;;;5047401;28;20036;-56